sensor_id;sensor_type;location;lat;lon;timestamp;P1;durP1;ratioP1;P2;durP2;ratioP2
52554;SDS011;38455;52.710;6.502;2024-03-22T00:00:41;52.40;;;31.15;;
52554;SDS011;38455;52.710;6.502;2024-03-22T00:03:07;54.60;;;31.00;;
52554;SDS011;38455;52.710;6.502;2024-03-22T00:05:32;49.92;;;31.10;;
52554;SDS011;38455;52.710;6.502;2024-03-22T00:07:58;55.22;;;32.92;;
52554;SDS011;38455;52.710;6.502;2024-03-22T00:10:24;55.75;;;30.75;;
52554;SDS011;38455;52.710;6.502;2024-03-22T00:12:49;53.35;;;32.53;;
52554;SDS011;38455;52.710;6.502;2024-03-22T00:15:15;52.55;;;31.35;;
52554;SDS011;38455;52.710;6.502;2024-03-22T00:17:42;55.47;;;32.05;;
52554;SDS011;38455;52.710;6.502;2024-03-22T00:20:09;51.55;;;31.67;;
52554;SDS011;38455;52.710;6.502;2024-03-22T00:22:35;53.95;;;33.03;;
52554;SDS011;38455;52.710;6.502;2024-03-22T00:25:01;57.97;;;32.85;;
52554;SDS011;38455;52.710;6.502;2024-03-22T00:27:27;54.78;;;34.30;;
52554;SDS011;38455;52.710;6.502;2024-03-22T00:29:53;52.72;;;32.13;;
52554;SDS011;38455;52.710;6.502;2024-03-22T00:32:18;55.03;;;32.13;;
52554;SDS011;38455;52.710;6.502;2024-03-22T00:34:44;61.97;;;33.42;;
52554;SDS011;38455;52.710;6.502;2024-03-22T00:37:10;59.47;;;34.05;;
52554;SDS011;38455;52.710;6.502;2024-03-22T00:39:36;62.25;;;34.53;;
52554;SDS011;38455;52.710;6.502;2024-03-22T00:42:01;53.45;;;32.45;;
52554;SDS011;38455;52.710;6.502;2024-03-22T00:44:27;59.47;;;34.00;;
52554;SDS011;38455;52.710;6.502;2024-03-22T00:46:53;60.20;;;34.85;;
52554;SDS011;38455;52.710;6.502;2024-03-22T00:49:18;62.70;;;33.17;;
52554;SDS011;38455;52.710;6.502;2024-03-22T00:51:44;63.05;;;35.05;;
52554;SDS011;38455;52.710;6.502;2024-03-22T00:54:10;62.30;;;36.50;;
52554;SDS011;38455;52.710;6.502;2024-03-22T00:56:35;61.55;;;35.67;;
52554;SDS011;38455;52.710;6.502;2024-03-22T00:59:04;61.60;;;36.38;;
52554;SDS011;38455;52.710;6.502;2024-03-22T01:01:29;61.67;;;35.70;;
52554;SDS011;38455;52.710;6.502;2024-03-22T01:03:55;62.45;;;36.03;;
52554;SDS011;38455;52.710;6.502;2024-03-22T01:06:21;66.05;;;35.53;;
52554;SDS011;38455;52.710;6.502;2024-03-22T01:08:50;66.07;;;36.78;;
52554;SDS011;38455;52.710;6.502;2024-03-22T01:11:16;72.30;;;36.80;;
52554;SDS011;38455;52.710;6.502;2024-03-22T01:13:42;62.55;;;36.22;;
52554;SDS011;38455;52.710;6.502;2024-03-22T01:16:08;65.75;;;34.85;;
52554;SDS011;38455;52.710;6.502;2024-03-22T01:18:35;64.97;;;35.55;;
52554;SDS011;38455;52.710;6.502;2024-03-22T01:21:01;67.00;;;36.28;;
52554;SDS011;38455;52.710;6.502;2024-03-22T01:23:27;63.53;;;36.75;;
52554;SDS011;38455;52.710;6.502;2024-03-22T01:25:52;67.88;;;38.58;;
52554;SDS011;38455;52.710;6.502;2024-03-22T01:28:18;70.80;;;37.83;;
52554;SDS011;38455;52.710;6.502;2024-03-22T01:30:43;71.70;;;38.22;;
52554;SDS011;38455;52.710;6.502;2024-03-22T01:33:09;75.53;;;38.05;;
52554;SDS011;38455;52.710;6.502;2024-03-22T01:35:35;66.63;;;38.67;;
52554;SDS011;38455;52.710;6.502;2024-03-22T01:38:00;71.43;;;38.40;;
52554;SDS011;38455;52.710;6.502;2024-03-22T01:40:26;68.47;;;37.70;;
52554;SDS011;38455;52.710;6.502;2024-03-22T01:42:58;66.75;;;37.97;;
52554;SDS011;38455;52.710;6.502;2024-03-22T01:45:25;71.60;;;38.75;;
52554;SDS011;38455;52.710;6.502;2024-03-22T01:47:51;69.97;;;38.30;;
52554;SDS011;38455;52.710;6.502;2024-03-22T01:50:19;67.10;;;38.28;;
52554;SDS011;38455;52.710;6.502;2024-03-22T01:52:45;70.28;;;39.42;;
52554;SDS011;38455;52.710;6.502;2024-03-22T01:55:12;68.03;;;38.70;;
52554;SDS011;38455;52.710;6.502;2024-03-22T01:57:39;73.60;;;40.22;;
52554;SDS011;38455;52.710;6.502;2024-03-22T02:00:05;70.53;;;38.35;;
52554;SDS011;38455;52.710;6.502;2024-03-22T02:02:31;70.35;;;38.13;;
52554;SDS011;38455;52.710;6.502;2024-03-22T02:04:57;75.35;;;39.42;;
52554;SDS011;38455;52.710;6.502;2024-03-22T02:07:22;69.72;;;37.88;;
52554;SDS011;38455;52.710;6.502;2024-03-22T02:09:48;77.70;;;39.72;;
52554;SDS011;38455;52.710;6.502;2024-03-22T02:12:14;75.80;;;39.65;;
52554;SDS011;38455;52.710;6.502;2024-03-22T02:14:41;77.28;;;39.90;;
52554;SDS011;38455;52.710;6.502;2024-03-22T02:17:06;71.70;;;38.20;;
52554;SDS011;38455;52.710;6.502;2024-03-22T02:19:32;69.80;;;39.28;;
52554;SDS011;38455;52.710;6.502;2024-03-22T02:21:58;76.35;;;41.35;;
52554;SDS011;38455;52.710;6.502;2024-03-22T02:24:23;70.00;;;38.25;;
52554;SDS011;38455;52.710;6.502;2024-03-22T02:26:49;73.90;;;39.65;;
52554;SDS011;38455;52.710;6.502;2024-03-22T02:29:14;74.00;;;39.67;;
52554;SDS011;38455;52.710;6.502;2024-03-22T02:31:40;73.85;;;39.20;;
52554;SDS011;38455;52.710;6.502;2024-03-22T02:34:06;78.28;;;41.00;;
52554;SDS011;38455;52.710;6.502;2024-03-22T02:36:32;76.88;;;40.13;;
52554;SDS011;38455;52.710;6.502;2024-03-22T02:38:57;74.15;;;40.47;;
52554;SDS011;38455;52.710;6.502;2024-03-22T02:41:23;77.72;;;39.65;;
52554;SDS011;38455;52.710;6.502;2024-03-22T02:43:48;74.95;;;39.38;;
52554;SDS011;38455;52.710;6.502;2024-03-22T02:46:14;73.50;;;40.13;;
52554;SDS011;38455;52.710;6.502;2024-03-22T02:48:40;74.95;;;40.47;;
52554;SDS011;38455;52.710;6.502;2024-03-22T02:51:05;78.47;;;41.35;;
52554;SDS011;38455;52.710;6.502;2024-03-22T02:53:31;68.68;;;39.05;;
52554;SDS011;38455;52.710;6.502;2024-03-22T02:55:59;71.93;;;38.28;;
52554;SDS011;38455;52.710;6.502;2024-03-22T02:58:26;70.80;;;38.50;;
52554;SDS011;38455;52.710;6.502;2024-03-22T03:00:51;71.93;;;39.03;;
52554;SDS011;38455;52.710;6.502;2024-03-22T03:03:17;75.10;;;39.63;;
52554;SDS011;38455;52.710;6.502;2024-03-22T03:05:42;74.78;;;39.97;;
52554;SDS011;38455;52.710;6.502;2024-03-22T03:08:09;72.57;;;39.33;;
52554;SDS011;38455;52.710;6.502;2024-03-22T03:10:35;75.22;;;39.50;;
52554;SDS011;38455;52.710;6.502;2024-03-22T03:13:01;72.80;;;39.47;;
52554;SDS011;38455;52.710;6.502;2024-03-22T03:15:26;69.05;;;37.20;;
52554;SDS011;38455;52.710;6.502;2024-03-22T03:17:52;71.72;;;38.97;;
52554;SDS011;38455;52.710;6.502;2024-03-22T03:20:17;76.10;;;41.38;;
52554;SDS011;38455;52.710;6.502;2024-03-22T03:22:43;73.07;;;38.13;;
52554;SDS011;38455;52.710;6.502;2024-03-22T03:25:09;71.55;;;38.78;;
52554;SDS011;38455;52.710;6.502;2024-03-22T03:27:34;71.50;;;40.13;;
52554;SDS011;38455;52.710;6.502;2024-03-22T03:30:00;74.75;;;38.03;;
52554;SDS011;38455;52.710;6.502;2024-03-22T03:32:27;75.65;;;37.50;;
52554;SDS011;38455;52.710;6.502;2024-03-22T03:34:53;73.65;;;39.30;;
52554;SDS011;38455;52.710;6.502;2024-03-22T03:37:19;68.35;;;38.72;;
52554;SDS011;38455;52.710;6.502;2024-03-22T03:39:44;67.28;;;37.50;;
52554;SDS011;38455;52.710;6.502;2024-03-22T03:42:10;71.65;;;41.08;;
52554;SDS011;38455;52.710;6.502;2024-03-22T03:44:36;71.97;;;38.00;;
52554;SDS011;38455;52.710;6.502;2024-03-22T03:47:01;74.40;;;38.55;;
52554;SDS011;38455;52.710;6.502;2024-03-22T03:49:27;69.85;;;37.08;;
52554;SDS011;38455;52.710;6.502;2024-03-22T03:51:53;72.95;;;38.90;;
52554;SDS011;38455;52.710;6.502;2024-03-22T03:54:19;73.30;;;37.63;;
52554;SDS011;38455;52.710;6.502;2024-03-22T03:56:44;71.57;;;38.03;;
52554;SDS011;38455;52.710;6.502;2024-03-22T03:59:10;69.53;;;36.63;;
52554;SDS011;38455;52.710;6.502;2024-03-22T04:01:36;68.30;;;36.38;;
52554;SDS011;38455;52.710;6.502;2024-03-22T04:04:02;69.30;;;36.55;;
52554;SDS011;38455;52.710;6.502;2024-03-22T04:06:28;68.93;;;37.03;;
52554;SDS011;38455;52.710;6.502;2024-03-22T04:08:54;73.85;;;37.22;;
52554;SDS011;38455;52.710;6.502;2024-03-22T04:11:19;71.20;;;37.45;;
52554;SDS011;38455;52.710;6.502;2024-03-22T04:13:45;71.28;;;38.70;;
52554;SDS011;38455;52.710;6.502;2024-03-22T04:16:12;72.90;;;40.10;;
52554;SDS011;38455;52.710;6.502;2024-03-22T04:18:38;71.57;;;37.67;;
52554;SDS011;38455;52.710;6.502;2024-03-22T04:21:04;71.50;;;38.50;;
52554;SDS011;38455;52.710;6.502;2024-03-22T04:23:30;77.32;;;38.83;;
52554;SDS011;38455;52.710;6.502;2024-03-22T04:25:56;70.72;;;38.53;;
52554;SDS011;38455;52.710;6.502;2024-03-22T04:28:26;75.35;;;40.00;;
52554;SDS011;38455;52.710;6.502;2024-03-22T04:30:56;78.35;;;41.40;;
52554;SDS011;38455;52.710;6.502;2024-03-22T04:35:55;72.82;;;38.72;;
52554;SDS011;38455;52.710;6.502;2024-03-22T04:38:24;81.55;;;40.00;;
52554;SDS011;38455;52.710;6.502;2024-03-22T04:40:50;79.97;;;40.60;;
52554;SDS011;38455;52.710;6.502;2024-03-22T04:43:16;78.18;;;38.17;;
52554;SDS011;38455;52.710;6.502;2024-03-22T04:45:42;73.55;;;40.72;;
52554;SDS011;38455;52.710;6.502;2024-03-22T04:48:09;81.00;;;40.83;;
52554;SDS011;38455;52.710;6.502;2024-03-22T04:50:34;79.70;;;41.03;;
52554;SDS011;38455;52.710;6.502;2024-03-22T04:53:00;81.90;;;42.53;;
52554;SDS011;38455;52.710;6.502;2024-03-22T04:55:26;79.32;;;41.05;;
52554;SDS011;38455;52.710;6.502;2024-03-22T04:57:52;73.03;;;40.53;;
52554;SDS011;38455;52.710;6.502;2024-03-22T05:00:18;84.30;;;41.92;;
52554;SDS011;38455;52.710;6.502;2024-03-22T05:02:44;76.05;;;40.60;;
52554;SDS011;38455;52.710;6.502;2024-03-22T05:05:10;79.00;;;41.13;;
52554;SDS011;38455;52.710;6.502;2024-03-22T05:07:36;80.60;;;41.38;;
52554;SDS011;38455;52.710;6.502;2024-03-22T05:10:02;74.07;;;41.28;;
52554;SDS011;38455;52.710;6.502;2024-03-22T05:12:28;80.32;;;41.85;;
52554;SDS011;38455;52.710;6.502;2024-03-22T05:14:54;80.22;;;42.05;;
52554;SDS011;38455;52.710;6.502;2024-03-22T05:17:20;82.30;;;40.63;;
52554;SDS011;38455;52.710;6.502;2024-03-22T05:19:46;73.95;;;39.22;;
52554;SDS011;38455;52.710;6.502;2024-03-22T05:22:12;74.50;;;38.50;;
52554;SDS011;38455;52.710;6.502;2024-03-22T05:24:37;77.90;;;39.20;;
52554;SDS011;38455;52.710;6.502;2024-03-22T05:27:03;75.80;;;39.65;;
52554;SDS011;38455;52.710;6.502;2024-03-22T05:29:29;75.57;;;40.35;;
52554;SDS011;38455;52.710;6.502;2024-03-22T05:31:54;77.88;;;40.30;;
52554;SDS011;38455;52.710;6.502;2024-03-22T05:34:20;74.15;;;40.25;;
52554;SDS011;38455;52.710;6.502;2024-03-22T05:36:46;74.13;;;38.90;;
52554;SDS011;38455;52.710;6.502;2024-03-22T05:39:11;73.85;;;38.28;;
52554;SDS011;38455;52.710;6.502;2024-03-22T05:41:37;75.82;;;37.47;;
52554;SDS011;38455;52.710;6.502;2024-03-22T05:44:03;67.07;;;35.67;;
52554;SDS011;38455;52.710;6.502;2024-03-22T05:46:30;65.22;;;34.67;;
52554;SDS011;38455;52.710;6.502;2024-03-22T05:48:56;65.03;;;33.72;;
52554;SDS011;38455;52.710;6.502;2024-03-22T05:51:23;71.90;;;36.72;;
52554;SDS011;38455;52.710;6.502;2024-03-22T05:53:49;70.60;;;36.33;;
52554;SDS011;38455;52.710;6.502;2024-03-22T05:56:15;82.40;;;36.00;;
52554;SDS011;38455;52.710;6.502;2024-03-22T05:58:41;75.13;;;37.85;;
52554;SDS011;38455;52.710;6.502;2024-03-22T06:01:07;78.35;;;40.03;;
52554;SDS011;38455;52.710;6.502;2024-03-22T06:03:32;74.72;;;37.83;;
52554;SDS011;38455;52.710;6.502;2024-03-22T06:05:59;80.30;;;38.92;;
52554;SDS011;38455;52.710;6.502;2024-03-22T06:08:28;76.15;;;41.05;;
52554;SDS011;38455;52.710;6.502;2024-03-22T06:10:57;80.93;;;40.85;;
52554;SDS011;38455;52.710;6.502;2024-03-22T06:13:22;86.80;;;43.20;;
52554;SDS011;38455;52.710;6.502;2024-03-22T06:15:49;97.82;;;47.47;;
52554;SDS011;38455;52.710;6.502;2024-03-22T06:18:15;95.22;;;47.30;;
52554;SDS011;38455;52.710;6.502;2024-03-22T06:20:41;98.03;;;48.05;;
52554;SDS011;38455;52.710;6.502;2024-03-22T06:23:09;91.82;;;45.10;;
52554;SDS011;38455;52.710;6.502;2024-03-22T06:25:35;90.22;;;43.47;;
52554;SDS011;38455;52.710;6.502;2024-03-22T06:28:01;81.97;;;42.63;;
52554;SDS011;38455;52.710;6.502;2024-03-22T06:30:27;84.35;;;41.53;;
52554;SDS011;38455;52.710;6.502;2024-03-22T06:32:53;81.22;;;41.33;;
52554;SDS011;38455;52.710;6.502;2024-03-22T06:35:20;76.18;;;39.67;;
52554;SDS011;38455;52.710;6.502;2024-03-22T06:37:45;75.47;;;37.75;;
52554;SDS011;38455;52.710;6.502;2024-03-22T06:40:11;87.80;;;42.00;;
52554;SDS011;38455;52.710;6.502;2024-03-22T06:42:37;74.82;;;38.42;;
52554;SDS011;38455;52.710;6.502;2024-03-22T06:45:03;72.38;;;37.67;;
52554;SDS011;38455;52.710;6.502;2024-03-22T06:47:29;71.90;;;37.85;;
52554;SDS011;38455;52.710;6.502;2024-03-22T06:49:54;72.22;;;35.22;;
52554;SDS011;38455;52.710;6.502;2024-03-22T06:52:20;76.90;;;36.70;;
52554;SDS011;38455;52.710;6.502;2024-03-22T06:54:46;69.07;;;35.75;;
52554;SDS011;38455;52.710;6.502;2024-03-22T06:57:12;67.72;;;35.15;;
52554;SDS011;38455;52.710;6.502;2024-03-22T06:59:37;62.55;;;34.08;;
52554;SDS011;38455;52.710;6.502;2024-03-22T07:02:03;67.47;;;35.85;;
52554;SDS011;38455;52.710;6.502;2024-03-22T07:04:29;64.47;;;32.67;;
52554;SDS011;38455;52.710;6.502;2024-03-22T07:06:54;63.17;;;32.70;;
52554;SDS011;38455;52.710;6.502;2024-03-22T07:09:20;60.55;;;32.38;;
52554;SDS011;38455;52.710;6.502;2024-03-22T07:11:46;59.13;;;30.83;;
52554;SDS011;38455;52.710;6.502;2024-03-22T07:14:11;64.22;;;32.53;;
52554;SDS011;38455;52.710;6.502;2024-03-22T07:16:37;56.35;;;29.60;;
52554;SDS011;38455;52.710;6.502;2024-03-22T07:19:03;56.42;;;27.70;;
52554;SDS011;38455;52.710;6.502;2024-03-22T07:21:29;56.35;;;27.80;;
52554;SDS011;38455;52.710;6.502;2024-03-22T07:23:56;54.15;;;28.67;;
52554;SDS011;38455;52.710;6.502;2024-03-22T07:26:21;53.78;;;27.73;;
52554;SDS011;38455;52.710;6.502;2024-03-22T07:28:47;54.42;;;26.27;;
52554;SDS011;38455;52.710;6.502;2024-03-22T07:31:12;51.53;;;27.33;;
52554;SDS011;38455;52.710;6.502;2024-03-22T07:33:39;50.72;;;26.27;;
52554;SDS011;38455;52.710;6.502;2024-03-22T07:36:05;48.45;;;25.08;;
52554;SDS011;38455;52.710;6.502;2024-03-22T07:38:31;51.85;;;24.48;;
52554;SDS011;38455;52.710;6.502;2024-03-22T07:40:57;58.42;;;24.27;;
52554;SDS011;38455;52.710;6.502;2024-03-22T07:43:23;47.63;;;22.67;;
52554;SDS011;38455;52.710;6.502;2024-03-22T07:45:48;47.72;;;23.13;;
52554;SDS011;38455;52.710;6.502;2024-03-22T07:48:14;45.83;;;23.10;;
52554;SDS011;38455;52.710;6.502;2024-03-22T07:50:41;44.10;;;22.23;;
52554;SDS011;38455;52.710;6.502;2024-03-22T07:53:08;48.42;;;21.83;;
52554;SDS011;38455;52.710;6.502;2024-03-22T07:55:34;49.92;;;20.83;;
52554;SDS011;38455;52.710;6.502;2024-03-22T07:58:00;45.10;;;20.92;;
52554;SDS011;38455;52.710;6.502;2024-03-22T08:00:26;38.80;;;19.65;;
52554;SDS011;38455;52.710;6.502;2024-03-22T08:02:51;37.75;;;18.52;;
52554;SDS011;38455;52.710;6.502;2024-03-22T08:05:18;38.70;;;19.17;;
52554;SDS011;38455;52.710;6.502;2024-03-22T08:07:44;34.25;;;16.40;;
52554;SDS011;38455;52.710;6.502;2024-03-22T08:10:10;28.38;;;15.90;;
52554;SDS011;38455;52.710;6.502;2024-03-22T08:12:36;37.67;;;16.85;;
52554;SDS011;38455;52.710;6.502;2024-03-22T08:15:01;29.58;;;16.17;;
52554;SDS011;38455;52.710;6.502;2024-03-22T08:17:27;39.88;;;16.83;;
52554;SDS011;38455;52.710;6.502;2024-03-22T08:19:53;35.05;;;17.40;;
52554;SDS011;38455;52.710;6.502;2024-03-22T08:22:19;36.22;;;16.55;;
52554;SDS011;38455;52.710;6.502;2024-03-22T08:24:45;35.50;;;16.08;;
52554;SDS011;38455;52.710;6.502;2024-03-22T08:27:11;31.30;;;16.30;;
52554;SDS011;38455;52.710;6.502;2024-03-22T08:29:37;35.30;;;15.88;;
52554;SDS011;38455;52.710;6.502;2024-03-22T08:32:03;32.92;;;16.02;;
52554;SDS011;38455;52.710;6.502;2024-03-22T08:34:32;37.95;;;15.60;;
52554;SDS011;38455;52.710;6.502;2024-03-22T08:36:58;34.05;;;15.57;;
52554;SDS011;38455;52.710;6.502;2024-03-22T08:39:24;34.70;;;16.35;;
52554;SDS011;38455;52.710;6.502;2024-03-22T08:41:50;33.58;;;16.13;;
52554;SDS011;38455;52.710;6.502;2024-03-22T08:44:16;33.63;;;15.13;;
52554;SDS011;38455;52.710;6.502;2024-03-22T08:46:42;33.40;;;15.77;;
52554;SDS011;38455;52.710;6.502;2024-03-22T08:49:07;39.70;;;15.63;;
52554;SDS011;38455;52.710;6.502;2024-03-22T08:51:33;34.13;;;15.68;;
52554;SDS011;38455;52.710;6.502;2024-03-22T08:53:59;37.33;;;16.17;;
52554;SDS011;38455;52.710;6.502;2024-03-22T08:56:25;36.95;;;16.65;;
52554;SDS011;38455;52.710;6.502;2024-03-22T08:58:51;34.53;;;16.80;;
52554;SDS011;38455;52.710;6.502;2024-03-22T09:01:17;38.42;;;16.52;;
52554;SDS011;38455;52.710;6.502;2024-03-22T09:03:43;40.33;;;17.55;;
52554;SDS011;38455;52.710;6.502;2024-03-22T09:06:11;36.20;;;17.13;;
52554;SDS011;38455;52.710;6.502;2024-03-22T09:08:40;35.38;;;16.42;;
52554;SDS011;38455;52.710;6.502;2024-03-22T09:11:05;37.15;;;16.70;;
52554;SDS011;38455;52.710;6.502;2024-03-22T09:13:31;43.47;;;17.05;;
52554;SDS011;38455;52.710;6.502;2024-03-22T09:15:59;37.85;;;17.10;;
52554;SDS011;38455;52.710;6.502;2024-03-22T09:18:25;37.40;;;15.73;;
52554;SDS011;38455;52.710;6.502;2024-03-22T09:20:55;34.55;;;16.77;;
52554;SDS011;38455;52.710;6.502;2024-03-22T09:23:21;34.97;;;16.80;;
52554;SDS011;38455;52.710;6.502;2024-03-22T09:25:47;33.50;;;16.40;;
52554;SDS011;38455;52.710;6.502;2024-03-22T09:28:13;30.45;;;15.95;;
52554;SDS011;38455;52.710;6.502;2024-03-22T09:30:39;37.88;;;16.80;;
52554;SDS011;38455;52.710;6.502;2024-03-22T09:33:05;38.90;;;16.83;;
52554;SDS011;38455;52.710;6.502;2024-03-22T09:35:35;35.80;;;16.27;;
52554;SDS011;38455;52.710;6.502;2024-03-22T09:38:01;39.22;;;17.55;;
52554;SDS011;38455;52.710;6.502;2024-03-22T09:40:27;36.75;;;17.48;;
52554;SDS011;38455;52.710;6.502;2024-03-22T09:42:54;37.60;;;17.30;;
52554;SDS011;38455;52.710;6.502;2024-03-22T09:45:27;35.97;;;18.08;;
52554;SDS011;38455;52.710;6.502;2024-03-22T09:47:53;29.10;;;15.93;;
52554;SDS011;38455;52.710;6.502;2024-03-22T09:50:20;35.03;;;17.20;;
52554;SDS011;38455;52.710;6.502;2024-03-22T09:52:46;35.22;;;15.50;;
52554;SDS011;38455;52.710;6.502;2024-03-22T09:55:13;32.60;;;16.83;;
52554;SDS011;38455;52.710;6.502;2024-03-22T09:57:39;29.15;;;16.65;;
52554;SDS011;38455;52.710;6.502;2024-03-22T10:00:08;27.10;;;16.38;;
52554;SDS011;38455;52.710;6.502;2024-03-22T10:02:34;23.60;;;15.52;;
52554;SDS011;38455;52.710;6.502;2024-03-22T10:05:00;35.08;;;16.45;;
52554;SDS011;38455;52.710;6.502;2024-03-22T10:07:27;27.55;;;15.80;;
52554;SDS011;38455;52.710;6.502;2024-03-22T10:09:57;27.17;;;16.33;;
52554;SDS011;38455;52.710;6.502;2024-03-22T10:12:26;33.72;;;16.38;;
52554;SDS011;38455;52.710;6.502;2024-03-22T10:14:54;31.38;;;16.95;;
52554;SDS011;38455;52.710;6.502;2024-03-22T10:17:21;30.10;;;17.40;;
52554;SDS011;38455;52.710;6.502;2024-03-22T10:19:49;26.42;;;15.30;;
52554;SDS011;38455;52.710;6.502;2024-03-22T10:22:16;24.88;;;14.80;;
52554;SDS011;38455;52.710;6.502;2024-03-22T10:24:42;25.98;;;15.13;;
52554;SDS011;38455;52.710;6.502;2024-03-22T10:27:08;25.13;;;14.63;;
52554;SDS011;38455;52.710;6.502;2024-03-22T10:29:35;24.65;;;14.63;;
52554;SDS011;38455;52.710;6.502;2024-03-22T10:32:01;29.48;;;15.73;;
52554;SDS011;38455;52.710;6.502;2024-03-22T10:34:27;20.58;;;14.13;;
52554;SDS011;38455;52.710;6.502;2024-03-22T10:36:55;26.83;;;15.10;;
52554;SDS011;38455;52.710;6.502;2024-03-22T10:39:23;22.33;;;13.27;;
52554;SDS011;38455;52.710;6.502;2024-03-22T10:41:49;20.88;;;13.60;;
52554;SDS011;38455;52.710;6.502;2024-03-22T10:44:15;27.48;;;14.50;;
52554;SDS011;38455;52.710;6.502;2024-03-22T10:46:43;22.95;;;12.68;;
52554;SDS011;38455;52.710;6.502;2024-03-22T10:49:15;25.05;;;14.32;;
52554;SDS011;38455;52.710;6.502;2024-03-22T10:51:42;26.77;;;15.32;;
52554;SDS011;38455;52.710;6.502;2024-03-22T10:54:28;26.40;;;15.07;;
52554;SDS011;38455;52.710;6.502;2024-03-22T10:56:58;21.98;;;13.45;;
52554;SDS011;38455;52.710;6.502;2024-03-22T10:59:25;23.52;;;12.85;;
52554;SDS011;38455;52.710;6.502;2024-03-22T11:01:51;27.23;;;13.80;;
52554;SDS011;38455;52.710;6.502;2024-03-22T11:04:17;19.42;;;12.75;;
52554;SDS011;38455;52.710;6.502;2024-03-22T11:06:47;21.58;;;13.82;;
52554;SDS011;38455;52.710;6.502;2024-03-22T11:09:26;21.75;;;12.73;;
52554;SDS011;38455;52.710;6.502;2024-03-22T11:11:52;18.38;;;11.65;;
52554;SDS011;38455;52.710;6.502;2024-03-22T11:14:20;20.60;;;13.07;;
52554;SDS011;38455;52.710;6.502;2024-03-22T11:16:46;18.58;;;11.90;;
52554;SDS011;38455;52.710;6.502;2024-03-22T11:19:12;15.75;;;9.93;;
52554;SDS011;38455;52.710;6.502;2024-03-22T11:21:38;18.60;;;10.52;;
52554;SDS011;38455;52.710;6.502;2024-03-22T11:24:04;14.90;;;10.43;;
52554;SDS011;38455;52.710;6.502;2024-03-22T11:26:31;15.52;;;10.30;;
52554;SDS011;38455;52.710;6.502;2024-03-22T11:28:59;18.77;;;11.75;;
52554;SDS011;38455;52.710;6.502;2024-03-22T11:31:25;14.55;;;10.70;;
52554;SDS011;38455;52.710;6.502;2024-03-22T11:33:54;14.35;;;9.65;;
52554;SDS011;38455;52.710;6.502;2024-03-22T11:36:21;15.75;;;9.70;;
52554;SDS011;38455;52.710;6.502;2024-03-22T11:38:47;13.55;;;9.98;;
52554;SDS011;38455;52.710;6.502;2024-03-22T11:41:19;15.32;;;9.15;;
52554;SDS011;38455;52.710;6.502;2024-03-22T11:43:51;10.95;;;8.65;;
52554;SDS011;38455;52.710;6.502;2024-03-22T11:46:17;13.20;;;8.85;;
52554;SDS011;38455;52.710;6.502;2024-03-22T11:48:43;15.45;;;9.35;;
52554;SDS011;38455;52.710;6.502;2024-03-22T11:51:09;15.27;;;9.35;;
52554;SDS011;38455;52.710;6.502;2024-03-22T11:53:35;14.68;;;9.63;;
52554;SDS011;38455;52.710;6.502;2024-03-22T11:56:01;16.48;;;9.02;;
52554;SDS011;38455;52.710;6.502;2024-03-22T11:58:29;12.82;;;8.85;;
52554;SDS011;38455;52.710;6.502;2024-03-22T12:00:58;12.73;;;8.23;;
52554;SDS011;38455;52.710;6.502;2024-03-22T12:03:24;11.90;;;8.73;;
52554;SDS011;38455;52.710;6.502;2024-03-22T12:05:52;11.93;;;8.48;;
52554;SDS011;38455;52.710;6.502;2024-03-22T12:08:19;11.40;;;7.95;;
52554;SDS011;38455;52.710;6.502;2024-03-22T12:10:45;13.98;;;7.53;;
52554;SDS011;38455;52.710;6.502;2024-03-22T12:13:11;12.65;;;8.27;;
52554;SDS011;38455;52.710;6.502;2024-03-22T12:15:36;8.93;;;6.55;;
52554;SDS011;38455;52.710;6.502;2024-03-22T12:18:02;9.85;;;6.80;;
52554;SDS011;38455;52.710;6.502;2024-03-22T12:20:28;12.02;;;7.28;;
52554;SDS011;38455;52.710;6.502;2024-03-22T12:22:54;9.02;;;6.20;;
52554;SDS011;38455;52.710;6.502;2024-03-22T12:25:20;7.80;;;5.80;;
52554;SDS011;38455;52.710;6.502;2024-03-22T12:27:46;8.02;;;5.70;;
52554;SDS011;38455;52.710;6.502;2024-03-22T12:30:12;9.10;;;6.10;;
52554;SDS011;38455;52.710;6.502;2024-03-22T12:32:38;7.85;;;5.53;;
52554;SDS011;38455;52.710;6.502;2024-03-22T12:35:04;9.20;;;6.00;;
52554;SDS011;38455;52.710;6.502;2024-03-22T12:37:30;9.38;;;5.80;;
52554;SDS011;38455;52.710;6.502;2024-03-22T12:39:56;9.27;;;5.80;;
52554;SDS011;38455;52.710;6.502;2024-03-22T12:42:21;9.23;;;5.75;;
52554;SDS011;38455;52.710;6.502;2024-03-22T12:44:48;9.50;;;4.97;;
52554;SDS011;38455;52.710;6.502;2024-03-22T12:47:14;6.22;;;3.63;;
52554;SDS011;38455;52.710;6.502;2024-03-22T12:49:40;6.10;;;4.18;;
52554;SDS011;38455;52.710;6.502;2024-03-22T12:52:06;6.93;;;4.00;;
52554;SDS011;38455;52.710;6.502;2024-03-22T12:54:35;5.53;;;4.05;;
52554;SDS011;38455;52.710;6.502;2024-03-22T12:57:00;5.35;;;3.88;;
52554;SDS011;38455;52.710;6.502;2024-03-22T12:59:26;5.65;;;2.85;;
52554;SDS011;38455;52.710;6.502;2024-03-22T13:01:51;6.53;;;3.30;;
52554;SDS011;38455;52.710;6.502;2024-03-22T13:04:18;4.32;;;2.40;;
52554;SDS011;38455;52.710;6.502;2024-03-22T13:06:44;3.45;;;1.88;;
52554;SDS011;38455;52.710;6.502;2024-03-22T13:09:10;4.63;;;1.63;;
52554;SDS011;38455;52.710;6.502;2024-03-22T13:11:37;4.35;;;2.00;;
52554;SDS011;38455;52.710;6.502;2024-03-22T13:14:03;6.70;;;2.65;;
52554;SDS011;38455;52.710;6.502;2024-03-22T13:16:28;5.80;;;2.47;;
52554;SDS011;38455;52.710;6.502;2024-03-22T13:18:54;8.32;;;3.00;;
52554;SDS011;38455;52.710;6.502;2024-03-22T13:21:20;11.48;;;3.42;;
52554;SDS011;38455;52.710;6.502;2024-03-22T13:23:45;9.68;;;3.10;;
52554;SDS011;38455;52.710;6.502;2024-03-22T13:26:11;13.93;;;3.67;;
52554;SDS011;38455;52.710;6.502;2024-03-22T13:28:37;9.07;;;3.55;;
52554;SDS011;38455;52.710;6.502;2024-03-22T13:31:03;11.15;;;3.15;;
52554;SDS011;38455;52.710;6.502;2024-03-22T13:33:31;10.27;;;4.38;;
52554;SDS011;38455;52.710;6.502;2024-03-22T13:35:57;10.75;;;3.22;;
52554;SDS011;38455;52.710;6.502;2024-03-22T13:38:23;9.70;;;3.55;;
52554;SDS011;38455;52.710;6.502;2024-03-22T13:40:55;9.43;;;3.78;;
52554;SDS011;38455;52.710;6.502;2024-03-22T13:43:22;13.70;;;4.10;;
52554;SDS011;38455;52.710;6.502;2024-03-22T13:45:51;11.68;;;3.95;;
52554;SDS011;38455;52.710;6.502;2024-03-22T13:48:21;14.20;;;4.78;;
52554;SDS011;38455;52.710;6.502;2024-03-22T13:50:49;15.05;;;5.38;;
52554;SDS011;38455;52.710;6.502;2024-03-22T13:53:16;16.00;;;5.43;;
52554;SDS011;38455;52.710;6.502;2024-03-22T13:55:42;16.02;;;5.00;;
52554;SDS011;38455;52.710;6.502;2024-03-22T13:58:08;16.90;;;5.35;;
52554;SDS011;38455;52.710;6.502;2024-03-22T14:00:34;16.20;;;5.93;;
52554;SDS011;38455;52.710;6.502;2024-03-22T14:03:00;14.40;;;6.43;;
52554;SDS011;38455;52.710;6.502;2024-03-22T14:05:26;23.60;;;7.03;;
52554;SDS011;38455;52.710;6.502;2024-03-22T14:07:52;20.63;;;6.80;;
52554;SDS011;38455;52.710;6.502;2024-03-22T14:10:18;21.42;;;7.82;;
52554;SDS011;38455;52.710;6.502;2024-03-22T14:12:45;19.50;;;7.78;;
52554;SDS011;38455;52.710;6.502;2024-03-22T14:15:11;17.42;;;7.75;;
52554;SDS011;38455;52.710;6.502;2024-03-22T14:17:36;18.50;;;8.20;;
52554;SDS011;38455;52.710;6.502;2024-03-22T14:20:02;19.95;;;8.38;;
52554;SDS011;38455;52.710;6.502;2024-03-22T14:22:35;18.30;;;8.30;;